createdAt,value
2022-09-15T00:00:27.387Z,12.90
2022-09-15T00:02:54.092Z,12.80
2022-09-15T00:05:20.859Z,12.80
2022-09-15T00:07:47.713Z,12.80
2022-09-15T00:10:14.312Z,12.80
2022-09-15T00:12:41.439Z,12.70
2022-09-15T00:15:08.487Z,12.70
2022-09-15T00:17:35.031Z,12.80
2022-09-15T00:20:02.033Z,12.70
2022-09-15T00:22:28.620Z,12.70
2022-09-15T00:24:55.196Z,12.70
2022-09-15T00:27:21.753Z,12.60
2022-09-15T00:29:48.314Z,12.60
2022-09-15T00:32:14.927Z,12.60
2022-09-15T00:34:41.592Z,12.60
2022-09-15T00:37:08.175Z,12.70
2022-09-15T00:39:34.748Z,12.60
2022-09-15T00:42:03.214Z,12.70
2022-09-15T00:44:35.777Z,12.70
2022-09-15T00:47:18.612Z,12.70
2022-09-15T00:49:49.059Z,12.70
2022-09-15T00:52:39.045Z,12.70
2022-09-15T00:55:28.058Z,12.70
2022-09-15T00:58:07.671Z,12.70
2022-09-15T01:00:35.161Z,12.70
2022-09-15T01:03:03.083Z,12.70
2022-09-15T01:05:42.236Z,12.70
2022-09-15T01:08:16.074Z,12.70
2022-09-15T01:10:42.689Z,12.80
2022-09-15T01:13:11.851Z,12.70
2022-09-15T01:15:49.863Z,12.70
2022-09-15T01:18:20.434Z,12.70
2022-09-15T01:20:58.898Z,12.70
2022-09-15T01:23:58.524Z,12.70
2022-09-15T01:26:46.427Z,12.70
2022-09-15T01:29:38.395Z,12.70
2022-09-15T01:32:42.537Z,12.70
2022-09-15T01:35:33.669Z,12.70
2022-09-15T01:38:17.010Z,12.70
2022-09-15T01:41:17.587Z,12.70
2022-09-15T01:44:06.687Z,12.70
2022-09-15T01:46:37.192Z,12.60
2022-09-15T01:49:06.725Z,12.60
2022-09-15T01:51:34.505Z,12.60
2022-09-15T01:54:05.353Z,12.60
2022-09-15T01:56:32.716Z,12.60
2022-09-15T01:58:59.606Z,12.50
2022-09-15T02:01:40.357Z,12.50
2022-09-15T02:04:25.354Z,12.50
2022-09-15T02:07:07.292Z,12.40
2022-09-15T02:09:40.087Z,12.40
2022-09-15T02:12:33.949Z,12.40
2022-09-15T02:15:07.842Z,12.30
2022-09-15T02:17:40.246Z,12.30
2022-09-15T02:20:32.028Z,12.20
2022-09-15T02:23:08.417Z,12.20
2022-09-15T02:25:41.536Z,12.20
2022-09-15T02:28:12.373Z,12.10
2022-09-15T02:30:41.871Z,12.10
2022-09-15T02:33:14.216Z,12.10
2022-09-15T02:35:41.489Z,12.00
2022-09-15T02:38:09.649Z,11.90
2022-09-15T02:40:39.681Z,11.90
2022-09-15T02:43:15.026Z,11.90
2022-09-15T02:45:42.033Z,11.80
2022-09-15T02:48:11.941Z,11.80
2022-09-15T02:50:39.312Z,11.80
2022-09-15T02:53:05.965Z,11.90
2022-09-15T02:55:33.490Z,11.90
2022-09-15T02:58:00.284Z,11.80
2022-09-15T03:00:28.302Z,11.80
2022-09-15T03:02:55.989Z,11.80
2022-09-15T03:05:25.420Z,11.90
2022-09-15T03:07:52.683Z,11.90
2022-09-15T03:10:19.989Z,11.90
2022-09-15T03:12:52.729Z,11.90
2022-09-15T03:15:22.274Z,11.80
2022-09-15T03:17:49.540Z,11.80
2022-09-15T03:20:21.756Z,11.90
2022-09-15T03:22:49.522Z,12.00
2022-09-15T03:25:16.982Z,12.00
2022-09-15T03:27:43.644Z,12.10
2022-09-15T03:30:11.847Z,12.20
2022-09-15T03:32:38.518Z,12.10
2022-09-15T03:35:06.668Z,12.20
2022-09-15T03:37:33.737Z,12.20
2022-09-15T03:40:00.620Z,12.20
2022-09-15T03:42:27.255Z,12.20
2022-09-15T03:44:53.813Z,12.30
2022-09-15T03:47:20.424Z,12.30
2022-09-15T03:49:47.508Z,12.20
2022-09-15T03:52:14.082Z,12.20
2022-09-15T03:54:40.714Z,12.30
2022-09-15T03:57:07.393Z,12.30
2022-09-15T03:59:33.928Z,12.30
2022-09-15T04:02:00.602Z,12.40
2022-09-15T04:04:27.293Z,12.50
2022-09-15T04:06:53.844Z,12.50
2022-09-15T04:09:21.413Z,12.60
2022-09-15T04:11:48.076Z,12.60
2022-09-15T04:14:14.816Z,12.60
2022-09-15T04:16:41.463Z,12.60
2022-09-15T04:19:08.161Z,12.60
2022-09-15T04:21:34.787Z,12.60
2022-09-15T04:24:01.672Z,12.60
2022-09-15T04:26:35.134Z,12.50
2022-09-15T04:29:04.443Z,12.50
2022-09-15T04:31:32.718Z,12.40
2022-09-15T04:33:59.463Z,12.40
2022-09-15T04:36:28.223Z,12.40
2022-09-15T04:38:55.475Z,12.40
2022-09-15T04:41:22.605Z,12.40
2022-09-15T04:43:49.695Z,12.40
2022-09-15T04:46:18.149Z,12.30
2022-09-15T04:48:48.761Z,12.30
2022-09-15T04:51:19.036Z,12.30
2022-09-15T04:53:46.415Z,12.30
2022-09-15T04:56:15.874Z,12.30
2022-09-15T04:58:48.977Z,12.30
2022-09-15T05:01:18.889Z,12.40
2022-09-15T05:03:46.437Z,12.40
2022-09-15T05:06:15.534Z,12.40
2022-09-15T05:08:42.277Z,12.40
2022-09-15T05:11:11.254Z,12.50
2022-09-15T05:13:39.504Z,12.50
2022-09-15T05:16:20.380Z,12.50
2022-09-15T05:18:49.266Z,12.50
2022-09-15T05:21:18.218Z,12.60
2022-09-15T05:23:45.227Z,12.50
2022-09-15T05:26:14.013Z,12.60
2022-09-15T05:28:41.557Z,12.60
2022-09-15T05:31:14.688Z,12.60
2022-09-15T05:33:41.305Z,12.60
2022-09-15T05:36:08.171Z,12.70
2022-09-15T05:38:34.781Z,12.70
2022-09-15T05:41:07.177Z,12.70
2022-09-15T05:43:34.670Z,12.80
2022-09-15T05:46:02.169Z,12.80
2022-09-15T05:48:29.170Z,12.90
2022-09-15T05:50:56.618Z,12.90
2022-09-15T05:53:24.079Z,12.90
2022-09-15T05:56:02.364Z,13.00
2022-09-15T05:58:30.361Z,13.00
2022-09-15T06:00:57.418Z,13.10
2022-09-15T06:03:28.763Z,13.10
2022-09-15T06:06:04.805Z,13.10
2022-09-15T06:08:44.421Z,13.20
2022-09-15T06:11:16.663Z,13.20
2022-09-15T06:13:44.150Z,13.30
2022-09-15T06:16:14.443Z,13.30
2022-09-15T06:18:41.729Z,13.30
2022-09-15T06:21:14.005Z,13.30
2022-09-15T06:23:40.951Z,13.30
2022-09-15T06:26:16.667Z,13.30
2022-09-15T06:28:49.732Z,13.40
2022-09-15T06:31:16.871Z,13.40
2022-09-15T06:33:51.230Z,13.40
2022-09-15T06:36:19.571Z,13.50
2022-09-15T06:38:46.679Z,13.50
2022-09-15T06:41:14.630Z,13.50
2022-09-15T06:43:42.038Z,13.60
2022-09-15T06:46:17.684Z,13.60
2022-09-15T06:48:47.561Z,13.70
2022-09-15T06:51:16.978Z,13.80
2022-09-15T06:53:44.016Z,13.80
2022-09-15T06:56:13.321Z,13.80
2022-09-15T06:58:41.095Z,13.80
2022-09-15T07:01:10.543Z,13.80
2022-09-15T07:03:38.934Z,13.80
2022-09-15T07:06:07.881Z,13.80
2022-09-15T07:08:34.811Z,13.80
2022-09-15T07:11:01.622Z,13.90
2022-09-15T07:13:28.214Z,14.00
2022-09-15T07:15:57.366Z,14.00
2022-09-15T07:18:24.779Z,14.00
2022-09-15T07:20:51.996Z,14.10
2022-09-15T07:23:19.081Z,14.20
2022-09-15T07:25:45.688Z,14.10
2022-09-15T07:28:12.721Z,14.20
2022-09-15T07:30:39.558Z,14.20
2022-09-15T07:33:07.517Z,14.20
2022-09-15T07:35:34.147Z,14.10
2022-09-15T07:38:00.708Z,14.10
2022-09-15T07:40:28.848Z,14.10
2022-09-15T07:42:55.962Z,14.10
2022-09-15T07:45:23.523Z,14.10
2022-09-15T07:47:50.243Z,14.10
2022-09-15T07:50:17.118Z,14.10
2022-09-15T07:52:43.970Z,14.10
2022-09-15T07:55:10.733Z,14.10
2022-09-15T07:57:37.491Z,14.20
2022-09-15T08:00:05.093Z,14.20
2022-09-15T08:02:31.812Z,14.20
2022-09-15T08:04:58.468Z,14.40
2022-09-15T08:07:25.063Z,14.50
2022-09-15T08:09:51.758Z,14.60
2022-09-15T08:12:18.602Z,14.70
2022-09-15T08:14:45.201Z,15.00
2022-09-15T08:17:11.973Z,15.00
2022-09-15T08:19:38.577Z,14.90
2022-09-15T08:22:05.579Z,15.00
2022-09-15T08:24:32.233Z,15.10
2022-09-15T08:26:58.810Z,15.30
2022-09-15T08:29:25.723Z,15.20
2022-09-15T08:31:52.362Z,15.10
2022-09-15T08:34:19.072Z,15.10
2022-09-15T08:36:45.613Z,15.10
2022-09-15T08:39:12.409Z,15.30
2022-09-15T08:41:45.533Z,15.50
2022-09-15T08:44:40.918Z,15.40
2022-09-15T08:47:13.598Z,15.60
2022-09-15T08:49:52.517Z,15.50
2022-09-15T08:52:28.408Z,15.60
2022-09-15T08:54:58.849Z,15.80
2022-09-15T08:57:26.166Z,15.90
2022-09-15T08:59:54.777Z,16.00
2022-09-15T09:02:49.757Z,16.00
2022-09-15T09:05:43.209Z,16.10
2022-09-15T09:08:14.634Z,16.20
2022-09-15T09:11:00.003Z,16.10
2022-09-15T09:13:47.032Z,16.20
2022-09-15T09:16:25.590Z,16.00
2022-09-15T09:19:08.625Z,16.30
2022-09-15T09:21:41.946Z,16.70
2022-09-15T09:24:16.928Z,16.70
2022-09-15T09:26:49.130Z,16.80
2022-09-15T09:29:19.076Z,16.70
2022-09-15T09:31:51.016Z,16.50
2022-09-15T09:34:31.154Z,16.60
2022-09-15T09:36:59.554Z,16.60
2022-09-15T09:39:28.054Z,16.50
2022-09-15T09:41:55.027Z,16.70
2022-09-15T09:44:31.533Z,16.90
2022-09-15T09:47:01.970Z,16.90
2022-09-15T09:49:35.311Z,17.10
2022-09-15T09:52:03.636Z,17.30
2022-09-15T09:54:32.925Z,17.10
2022-09-15T09:57:22.202Z,17.10
2022-09-15T09:59:50.553Z,17.40
2022-09-15T10:02:21.793Z,17.60
2022-09-15T10:04:51.612Z,17.40
2022-09-15T10:07:24.558Z,17.50
2022-09-15T10:09:56.980Z,18.00
2022-09-15T10:12:31.882Z,17.80
2022-09-15T10:15:04.511Z,17.60
2022-09-15T10:17:43.415Z,17.50
2022-09-15T10:20:46.453Z,17.20
2022-09-15T10:23:21.472Z,17.20
2022-09-15T10:25:59.662Z,17.20
2022-09-15T10:28:27.386Z,17.00
2022-09-15T10:31:13.249Z,17.00
2022-09-15T10:33:50.466Z,17.00
2022-09-15T10:36:29.451Z,17.30
2022-09-15T10:39:17.910Z,17.40
2022-09-15T10:42:10.803Z,17.40
2022-09-15T10:45:08.636Z,17.50
2022-09-15T10:47:57.110Z,17.80
2022-09-15T10:50:32.273Z,18.00
2022-09-15T10:53:19.408Z,18.10
2022-09-15T10:55:54.482Z,17.80
2022-09-15T10:59:00.822Z,17.60
2022-09-15T11:01:38.514Z,17.50
2022-09-15T11:04:24.894Z,17.60
2022-09-15T11:07:22.594Z,17.90
2022-09-15T11:10:14.244Z,18.30
2022-09-15T11:12:58.016Z,18.20
2022-09-15T11:15:29.454Z,18.50
2022-09-15T11:18:10.383Z,18.70
2022-09-15T11:20:48.199Z,18.90
2022-09-15T11:23:24.330Z,19.00
2022-09-15T11:26:00.706Z,18.80
2022-09-15T11:28:33.837Z,18.70
2022-09-15T11:31:07.008Z,18.60
2022-09-15T11:33:59.639Z,18.30
2022-09-15T11:36:37.823Z,18.10
2022-09-15T11:39:24.774Z,17.90
2022-09-15T11:42:01.669Z,17.90
2022-09-15T11:44:38.009Z,17.80
2022-09-15T11:47:04.548Z,17.60
2022-09-15T11:49:46.452Z,17.50
2022-09-15T11:52:25.909Z,17.30
2022-09-15T11:55:34.192Z,17.00
2022-09-15T11:58:22.890Z,16.40
2022-09-15T12:01:14.724Z,15.90
2022-09-15T12:03:53.540Z,15.70
2022-09-15T12:06:45.991Z,15.80
2022-09-15T12:09:18.425Z,15.90
2022-09-15T12:11:48.126Z,16.10
2022-09-15T12:14:36.893Z,16.30
2022-09-15T12:17:09.690Z,16.50
2022-09-15T12:19:55.708Z,16.60
2022-09-15T12:22:43.582Z,16.80
2022-09-15T12:25:19.938Z,17.00
2022-09-15T12:28:27.392Z,17.20
2022-09-15T12:31:25.436Z,17.50
2022-09-15T12:34:00.942Z,17.60
2022-09-15T12:36:39.421Z,18.20
2022-09-15T12:39:26.326Z,18.60
2022-09-15T12:41:57.890Z,18.20
2022-09-15T12:44:51.752Z,17.90
2022-09-15T12:47:28.288Z,17.70
2022-09-15T12:49:58.860Z,17.60
2022-09-15T12:52:26.169Z,17.40
2022-09-15T12:54:57.126Z,17.30
2022-09-15T12:57:32.405Z,17.10
2022-09-15T13:00:20.954Z,16.80
2022-09-15T13:02:50.045Z,16.70
2022-09-15T13:05:41.692Z,16.60
2022-09-15T13:08:16.694Z,16.70
2022-09-15T13:10:59.156Z,16.80
2022-09-15T13:13:31.131Z,17.00
2022-09-15T13:16:02.080Z,17.00
2022-09-15T13:18:30.973Z,17.40
2022-09-15T13:21:04.714Z,17.60
2022-09-15T13:23:36.801Z,17.50
2022-09-15T13:26:06.464Z,17.50
2022-09-15T13:28:34.068Z,17.50
2022-09-15T13:31:29.963Z,17.80
2022-09-15T13:40:43.839Z,17.70
2022-09-15T13:43:38.730Z,17.80
2022-09-15T13:46:36.727Z,18.00
2022-09-15T13:49:19.635Z,18.10
2022-09-15T13:52:01.556Z,17.90
2022-09-15T13:54:28.340Z,17.90
2022-09-15T13:56:59.918Z,18.00
2022-09-15T13:59:32.257Z,18.10
2022-09-15T14:01:59.614Z,18.20
2022-09-15T14:04:32.239Z,19.30
2022-09-15T14:07:01.531Z,19.40
2022-09-15T14:09:35.191Z,19.40
2022-09-15T14:12:09.735Z,18.80
2022-09-15T14:14:41.248Z,18.50
2022-09-15T14:17:43.692Z,18.40
2022-09-15T14:20:24.078Z,18.50
2022-09-15T14:22:51.681Z,18.40
2022-09-15T14:25:20.151Z,18.30
2022-09-15T14:27:56.480Z,18.10
2022-09-15T14:30:32.517Z,18.10
2022-09-15T14:33:01.975Z,18.20
2022-09-15T14:35:46.870Z,18.30
2022-09-15T14:38:25.212Z,18.30
2022-09-15T14:40:54.496Z,18.60
2022-09-15T14:43:31.362Z,18.60
2022-09-15T14:46:14.709Z,18.80
2022-09-15T14:48:41.417Z,18.90
2022-09-15T14:51:28.500Z,18.80
2022-09-15T14:53:59.844Z,18.50
2022-09-15T14:56:31.375Z,18.40
2022-09-15T14:59:01.954Z,18.10
2022-09-15T15:01:34.807Z,18.00
2022-09-15T15:04:18.146Z,17.70
2022-09-15T15:06:53.822Z,17.50
2022-09-15T15:09:44.601Z,17.20
2022-09-15T15:12:35.378Z,17.20
2022-09-15T15:15:02.877Z,16.90
2022-09-15T15:17:35.840Z,16.90
2022-09-15T15:20:08.806Z,16.80
2022-09-15T15:22:37.516Z,16.70
2022-09-15T15:25:32.291Z,16.50
2022-09-15T15:28:00.240Z,16.40
2022-09-15T15:30:30.583Z,16.70
2022-09-15T15:32:58.757Z,16.60
2022-09-15T15:35:25.886Z,16.80
2022-09-15T15:38:28.041Z,17.20
2022-09-15T15:41:04.369Z,17.20
2022-09-15T15:43:31.730Z,17.20
2022-09-15T15:46:01.214Z,17.20
2022-09-15T15:48:36.840Z,17.00
2022-09-15T15:51:05.626Z,17.10
2022-09-15T15:53:32.217Z,17.00
2022-09-15T15:56:00.124Z,17.00
2022-09-15T15:58:26.958Z,17.00
2022-09-15T16:00:56.197Z,17.10
2022-09-15T16:03:24.460Z,17.20
2022-09-15T16:05:54.334Z,17.40
2022-09-15T16:08:28.055Z,17.40
2022-09-15T16:10:55.910Z,17.50
2022-09-15T16:13:23.836Z,17.40
2022-09-15T16:15:52.450Z,17.50
2022-09-15T16:18:18.993Z,17.60
2022-09-15T16:20:45.618Z,17.60
2022-09-15T16:23:15.616Z,17.50
2022-09-15T16:26:05.749Z,17.70
2022-09-15T16:28:32.332Z,17.50
2022-09-15T16:30:59.143Z,17.30
2022-09-15T16:33:26.337Z,17.00
2022-09-15T16:36:03.791Z,16.90
2022-09-15T16:38:30.443Z,16.70
2022-09-15T16:40:57.199Z,16.60
2022-09-15T16:43:23.997Z,16.60
2022-09-15T16:45:51.923Z,16.50
2022-09-15T16:48:19.449Z,16.40
2022-09-15T16:51:02.441Z,16.40
2022-09-15T16:53:34.078Z,16.30
2022-09-15T16:56:00.917Z,16.20
2022-09-15T16:58:28.020Z,16.20
2022-09-15T17:00:54.881Z,16.10
2022-09-15T17:03:24.124Z,16.10
2022-09-15T17:05:55.568Z,16.00
2022-09-15T17:08:26.110Z,15.90
2022-09-15T17:10:53.488Z,15.90
2022-09-15T17:13:25.082Z,15.80
2022-09-15T17:15:54.695Z,15.70
2022-09-15T17:18:21.926Z,15.70
2022-09-15T17:20:49.693Z,15.70
2022-09-15T17:23:27.895Z,15.60
2022-09-15T17:25:59.533Z,15.40
2022-09-15T17:28:28.783Z,15.00
2022-09-15T17:31:06.265Z,14.80
2022-09-15T17:33:33.323Z,14.70
2022-09-15T17:36:02.122Z,14.60
2022-09-15T17:38:28.734Z,14.50
2022-09-15T17:40:55.574Z,14.40
2022-09-15T17:43:25.127Z,14.40
2022-09-15T17:45:51.940Z,14.40
2022-09-15T17:48:18.764Z,14.30
2022-09-15T17:50:46.196Z,14.40
2022-09-15T17:53:15.100Z,14.50
2022-09-15T17:55:42.024Z,14.30
2022-09-15T17:58:09.417Z,14.20
2022-09-15T18:00:38.146Z,14.10
2022-09-15T18:03:20.978Z,14.00
2022-09-15T18:05:48.016Z,13.90
2022-09-15T18:08:16.364Z,13.80
2022-09-15T18:10:43.578Z,13.70
2022-09-15T18:13:15.254Z,13.60
2022-09-15T18:15:42.841Z,13.60
2022-09-15T18:18:16.160Z,13.60
2022-09-15T18:20:43.464Z,13.50
2022-09-15T18:23:15.081Z,13.50
2022-09-15T18:25:42.054Z,13.50
2022-09-15T18:28:09.239Z,13.40
2022-09-15T18:30:40.565Z,13.40
2022-09-15T18:33:17.798Z,13.40
2022-09-15T18:35:45.250Z,13.40
2022-09-15T18:38:12.394Z,13.40
2022-09-15T18:40:43.961Z,13.40
2022-09-15T18:43:10.699Z,13.40
2022-09-15T18:45:37.497Z,13.40
2022-09-15T18:48:07.985Z,13.50
2022-09-15T18:50:37.990Z,13.50
2022-09-15T18:53:05.375Z,13.50
2022-09-15T18:55:32.591Z,13.40
2022-09-15T18:58:01.137Z,13.40
2022-09-15T19:00:28.643Z,13.40
2022-09-15T19:03:00.052Z,13.30
2022-09-15T19:05:27.459Z,13.30
2022-09-15T19:07:55.235Z,13.40
2022-09-15T19:10:22.534Z,13.40
2022-09-15T19:12:49.460Z,13.30
2022-09-15T19:15:16.301Z,13.30
2022-09-15T19:17:43.782Z,13.30
2022-09-15T19:20:12.732Z,13.30
2022-09-15T19:22:40.781Z,13.30
2022-09-15T19:25:09.022Z,13.30
2022-09-15T19:27:36.638Z,13.30
2022-09-15T19:30:04.105Z,13.30
2022-09-15T19:32:32.929Z,13.30
2022-09-15T19:34:59.684Z,13.30
2022-09-15T19:37:26.570Z,13.30
2022-09-15T19:39:53.302Z,13.40
2022-09-15T19:42:20.016Z,13.30
2022-09-15T19:44:47.782Z,13.30
2022-09-15T19:47:14.806Z,13.30
2022-09-15T19:49:41.513Z,13.30
2022-09-15T19:52:08.442Z,13.30
2022-09-15T19:54:36.130Z,13.30
2022-09-15T19:57:03.647Z,13.20
2022-09-15T19:59:31.856Z,13.20
2022-09-15T20:01:59.970Z,13.20
2022-09-15T20:04:27.391Z,13.10
2022-09-15T20:06:54.100Z,13.10
2022-09-15T20:09:20.883Z,13.00
2022-09-15T20:11:47.729Z,13.00
2022-09-15T20:14:14.953Z,13.00
2022-09-15T20:16:41.732Z,12.90
2022-09-15T20:19:08.440Z,12.90
2022-09-15T20:21:53.003Z,12.90
2022-09-15T20:24:21.359Z,12.90
2022-09-15T20:26:48.344Z,12.80
2022-09-15T20:29:15.182Z,12.80
2022-09-15T20:31:42.057Z,12.90
2022-09-15T20:34:08.662Z,12.80
2022-09-15T20:36:38.641Z,12.80
2022-09-15T20:39:09.188Z,12.80
2022-09-15T20:41:36.887Z,12.90
2022-09-15T20:44:05.103Z,12.90
2022-09-15T20:46:31.657Z,12.90
2022-09-15T20:48:58.212Z,12.90
2022-09-15T20:51:27.867Z,12.90
2022-09-15T20:53:56.115Z,12.90
2022-09-15T20:56:25.478Z,12.90
2022-09-15T20:58:57.591Z,12.80
2022-09-15T21:01:33.466Z,12.80
2022-09-15T21:04:00.153Z,12.70
2022-09-15T21:06:27.777Z,12.70
2022-09-15T21:08:58.480Z,12.70
2022-09-15T21:11:26.629Z,12.70
2022-09-15T21:13:54.329Z,12.70
2022-09-15T21:16:25.061Z,12.70
2022-09-15T21:18:51.773Z,12.60
2022-09-15T21:21:19.845Z,12.60
2022-09-15T21:23:55.113Z,12.60
2022-09-15T21:26:26.731Z,12.60
2022-09-15T21:28:54.507Z,12.60
2022-09-15T21:31:30.644Z,12.60
2022-09-15T21:33:58.088Z,12.60
2022-09-15T21:36:30.518Z,12.50
2022-09-15T21:38:58.125Z,12.50
2022-09-15T21:41:28.966Z,12.40
2022-09-15T21:43:57.963Z,12.40
2022-09-15T21:46:27.230Z,12.40
2022-09-15T21:48:56.131Z,12.30
2022-09-15T21:51:25.192Z,12.30
2022-09-15T21:53:53.570Z,12.30
2022-09-15T21:56:21.184Z,12.20
2022-09-15T21:58:48.357Z,12.20
2022-09-15T22:01:22.631Z,12.20
2022-09-15T22:03:54.566Z,12.10
2022-09-15T22:06:27.430Z,12.10
2022-09-15T22:08:55.107Z,12.10
2022-09-15T22:11:22.325Z,12.10
2022-09-15T22:13:49.027Z,12.10
2022-09-15T22:16:17.892Z,12.10
2022-09-15T22:18:45.525Z,12.10
2022-09-15T22:21:18.494Z,12.10
2022-09-15T22:23:47.171Z,12.10
2022-09-15T22:26:19.848Z,12.00
2022-09-15T22:28:46.783Z,12.00
2022-09-15T22:31:16.407Z,11.90
2022-09-15T22:33:43.246Z,11.90
2022-09-15T22:36:15.568Z,11.90
2022-09-15T22:38:42.142Z,11.90
2022-09-15T22:41:14.178Z,11.90
2022-09-15T22:43:42.378Z,11.90
2022-09-15T22:46:09.797Z,11.90
2022-09-15T22:48:40.975Z,11.90
2022-09-15T22:51:11.005Z,11.90
2022-09-15T22:53:37.727Z,11.90
2022-09-15T22:56:17.057Z,11.80
2022-09-15T22:58:44.219Z,11.80
2022-09-15T23:01:14.057Z,11.80
2022-09-15T23:03:41.453Z,11.80
2022-09-15T23:06:08.400Z,11.80
2022-09-15T23:08:36.475Z,11.80
2022-09-15T23:11:05.011Z,11.80
2022-09-15T23:13:31.967Z,11.70
2022-09-15T23:15:58.618Z,11.70
2022-09-15T23:18:26.817Z,11.70
2022-09-15T23:21:02.361Z,11.70
2022-09-15T23:23:29.898Z,11.60
2022-09-15T23:25:56.692Z,11.60
2022-09-15T23:28:23.386Z,11.60
2022-09-15T23:30:54.426Z,11.50
2022-09-15T23:33:22.726Z,11.50
2022-09-15T23:35:49.676Z,11.50
2022-09-15T23:38:17.945Z,11.50
2022-09-15T23:40:45.051Z,11.50
2022-09-15T23:43:12.550Z,11.50
2022-09-15T23:45:39.244Z,11.40
2022-09-15T23:48:08.241Z,11.40
2022-09-15T23:50:36.208Z,11.40
2022-09-15T23:53:03.278Z,11.40
2022-09-15T23:55:30.103Z,11.40
2022-09-15T23:57:56.716Z,11.40
